Time;durP1;ratioP1;P1;durP2;ratioP2;P2;SDS_P1;SDS_P2;PMS_P1;PMS_P2;Temp;Humidity;BMP_temperature;BMP_pressure;BME280_temperature;BME280_humidity;BME280_pressure;Samples;Min_cycle;Max_cycle;Signal;HPM_P1;HPM_P2
2022/04/14 00:01:41;;;;;;;14.65;8.70;;;;;;;8.98;78.83;98675.81;4160893;28;20521;-72
2022/04/14 00:03:41;;;;;;;14.77;9.23;;;;;;;9.04;77.97;98675.53;4162630;28;20045;-72
2022/04/14 00:05:41;;;;;;;11.68;9.07;;;;;;;9.08;77.35;98657.06;4160199;28;20042;-72
2022/04/14 00:07:44;;;;;;;12.05;9.38;;;;;;;9.16;76.89;98656.03;4160626;28;20044;-72
2022/04/14 00:09:44;;;;;;;13.00;9.63;;;;;;;9.17;77.88;98652.13;4161352;28;20532;-72
2022/04/14 00:11:44;;;;;;;14.95;9.88;;;;;;;9.06;79.63;98657.44;4161655;28;20037;-72
2022/04/14 00:13:45;;;;;;;15.43;10.82;;;;;;;8.95;81.46;98662.75;4160553;28;20052;-72
2022/04/14 00:15:46;;;;;;;16.08;11.43;;;;;;;8.82;82.07;98658.50;4160694;28;20124;-72
2022/04/14 00:17:46;;;;;;;13.05;9.57;;;;;;;8.71;82.89;98676.81;4161308;28;20075;-72
2022/04/14 00:19:47;;;;;;;13.98;9.52;;;;;;;8.63;85.23;98669.53;4159490;28;20072;-72
2022/04/14 00:21:47;;;;;;;16.40;10.60;;;;;;;8.59;88.11;98669.44;4160737;28;20144;-72
2022/04/14 00:23:47;;;;;;;17.70;10.98;;;;;;;8.56;84.75;98655.56;4161257;28;20434;-72
2022/04/14 00:25:47;;;;;;;13.35;10.45;;;;;;;8.51;85.26;98662.16;4159218;28;20043;-72
2022/04/14 00:27:48;;;;;;;16.75;11.40;;;;;;;8.40;86.33;98661.94;4157067;28;20045;-72
2022/04/14 00:29:48;;;;;;;14.93;11.18;;;;;;;8.33;86.52;98664.47;4155314;28;20786;-72
2022/04/14 00:31:49;;;;;;;17.10;11.73;;;;;;;8.34;84.69;98668.84;4162917;28;20423;-72
2022/04/14 00:33:49;;;;;;;14.18;9.55;;;;;;;8.31;85.27;98664.06;4160337;28;20076;-72
2022/04/14 00:35:50;;;;;;;15.32;8.57;;;;;;;8.22;87.00;98666.19;4162006;28;20065;-72
2022/04/14 00:37:50;;;;;;;13.25;9.18;;;;;;;8.18;88.29;98671.63;4160574;28;20041;-72
2022/04/14 00:39:51;;;;;;;13.20;8.80;;;;;;;8.10;89.68;98675.34;4160783;28;20041;-72
2022/04/14 00:41:51;;;;;;;12.43;8.45;;;;;;;7.99;89.60;98677.06;4160610;28;20041;-72
2022/04/14 00:43:52;;;;;;;13.45;7.93;;;;;;;7.93;89.35;98672.97;4160604;28;20104;-72
2022/04/14 00:45:53;;;;;;;12.95;9.07;;;;;;;7.84;90.44;98686.13;4161623;28;20140;-72
2022/04/14 00:47:53;;;;;;;14.50;9.52;;;;;;;7.71;91.93;98679.09;4154679;28;20081;-72
2022/04/14 00:49:54;;;;;;;15.35;8.82;;;;;;;7.72;88.78;98670.47;4162160;28;20060;-72
2022/04/14 00:51:54;;;;;;;13.15;8.85;;;;;;;7.83;86.78;98673.50;4161302;28;20132;-72
2022/04/14 00:53:55;;;;;;;15.25;9.05;;;;;;;7.85;86.46;98668.44;4160768;28;20057;-72
2022/04/14 00:55:55;;;;;;;14.60;9.95;;;;;;;7.76;89.35;98676.88;4160498;28;20052;-72
2022/04/14 00:57:55;;;;;;;12.18;9.55;;;;;;;7.71;90.31;98681.84;4159440;28;20052;-72
2022/04/14 00:59:56;;;;;;;16.92;10.05;;;;;;;7.64;90.73;98673.41;4161892;28;20087;-72
2022/04/14 01:01:57;;;;;;;11.40;9.30;;;;;;;7.58;91.20;98672.84;4159415;28;20374;-72
2022/04/14 01:03:59;;;;;;;15.23;10.55;;;;;;;7.56;91.24;98675.16;4160683;28;20462;-72
2022/04/14 01:06:02;;;;;;;12.40;10.27;;;;;;;7.51;91.59;98676.22;4160981;28;20052;-72
2022/04/14 01:08:02;;;;;;;18.35;10.70;;;;;;;7.41;92.30;98676.75;4157887;28;20045;-72
2022/04/14 01:10:05;;;;;;;14.60;11.40;;;;;;;7.33;94.56;98680.44;4162082;28;20025;-72
2022/04/14 01:12:07;;;;;;;18.30;12.15;;;;;;;7.35;94.08;98693.84;4160368;28;20037;-72
2022/04/14 01:14:07;;;;;;;15.93;11.32;;;;;;;7.29;93.51;98694.13;4162479;28;20439;-72
2022/04/14 01:16:07;;;;;;;14.88;11.13;;;;;;;7.29;93.52;98687.81;4162379;28;20065;-72
2022/04/14 01:18:08;;;;;;;15.18;10.95;;;;;;;7.25;92.74;98695.16;4163575;28;20065;-72
2022/04/14 01:20:11;;;;;;;17.42;11.10;;;;;;;7.25;91.88;98701.47;4160410;28;20033;-72
2022/04/14 01:22:16;;;;;;;16.40;10.13;;;;;;;7.28;93.63;98709.03;4163991;28;20509;-72
2022/04/14 01:24:17;;;;;;;11.60;8.88;;;;;;;7.32;95.41;98715.44;4161790;28;20366;-72
2022/04/14 01:26:17;;;;;;;10.32;7.18;;;;;;;7.39;95.85;98706.56;4163961;28;20040;-72
2022/04/14 01:28:18;;;;;;;11.70;7.30;;;;;;;7.44;94.81;98694.50;4163987;28;20033;-72
2022/04/14 01:30:18;;;;;;;10.52;7.25;;;;;;;7.52;93.42;98697.09;4163152;28;20209;-72
2022/04/14 01:32:19;;;;;;;15.50;9.65;;;;;;;7.48;92.60;98695.41;4164905;28;20044;-72
2022/04/14 01:34:20;;;;;;;12.73;8.98;;;;;;;7.44;91.18;98706.31;4164219;28;20040;-72
2022/04/14 01:36:20;;;;;;;12.73;9.52;;;;;;;7.37;90.74;98708.88;4159335;28;20111;-72
2022/04/14 01:38:21;;;;;;;12.95;9.88;;;;;;;7.33;91.06;98713.47;4163571;28;20381;-72
2022/04/14 01:40:21;;;;;;;16.17;10.23;;;;;;;7.30;90.32;98717.75;4163308;28;20096;-72
2022/04/14 01:42:22;;;;;;;12.00;8.57;;;;;;;7.35;88.56;98715.88;4164377;28;20380;-72
2022/04/14 01:44:22;;;;;;;15.40;9.02;;;;;;;7.39;88.43;98716.78;4166585;28;20198;-72
2022/04/14 01:46:22;;;;;;;12.25;8.52;;;;;;;7.44;89.24;98720.06;4165056;28;20048;-72
2022/04/14 01:48:23;;;;;;;9.77;7.45;;;;;;;7.51;88.81;98720.28;4162431;28;20045;-72
2022/04/14 01:50:23;;;;;;;10.93;7.55;;;;;;;7.56;88.24;98711.75;4156226;28;20482;-72
2022/04/14 01:52:23;;;;;;;13.57;7.60;;;;;;;7.62;87.64;98717.81;4164806;28;20111;-72
2022/04/14 01:54:24;;;;;;;9.73;8.02;;;;;;;7.65;85.27;98719.06;4163750;28;20062;-72
2022/04/14 01:56:24;;;;;;;12.00;7.45;;;;;;;7.70;83.93;98713.31;4159050;28;20045;-72
2022/04/14 01:58:25;;;;;;;10.07;7.65;;;;;;;7.71;83.83;98723.97;4162031;28;20038;-72
2022/04/14 02:00:26;;;;;;;9.65;7.32;;;;;;;7.66;84.16;98721.47;4165127;28;20037;-72
2022/04/14 02:02:26;;;;;;;10.68;7.53;;;;;;;7.63;83.90;98719.41;4164205;28;20079;-72
2022/04/14 02:04:27;;;;;;;10.93;7.75;;;;;;;7.59;83.52;98715.75;4163394;28;20069;-72
2022/04/14 02:06:27;;;;;;;12.25;7.95;;;;;;;7.61;82.19;98718.94;4163915;28;20045;-72
2022/04/14 02:08:27;;;;;;;14.02;8.38;;;;;;;7.57;84.19;98721.63;4162019;28;20049;-72
2022/04/14 02:10:27;;;;;;;11.88;8.38;;;;;;;7.51;83.92;98722.22;4168368;28;20047;-72
2022/04/14 02:12:29;;;;;;;10.15;8.32;;;;;;;7.47;83.74;98730.41;4162629;28;20053;-72
2022/04/14 02:14:30;;;;;;;11.60;8.27;;;;;;;7.44;84.20;98730.28;4164480;28;20037;-72
2022/04/14 02:16:30;;;;;;;11.23;8.00;;;;;;;7.38;84.71;98732.50;4163324;28;20069;-72
2022/04/14 02:18:31;;;;;;;11.13;7.38;;;;;;;7.39;83.07;98733.31;4162083;28;20088;-72
2022/04/14 02:20:31;;;;;;;11.23;7.68;;;;;;;7.39;84.02;98725.03;4164037;28;20050;-72
2022/04/14 02:22:42;;;;;;;11.77;8.27;;;;;;;7.34;85.54;98731.59;4166566;28;20148;-72
2022/04/14 02:24:43;;;;;;;10.82;8.15;;;;;;;7.28;85.69;98730.22;4163786;28;20060;-72
2022/04/14 02:26:43;;;;;;;12.90;9.15;;;;;;;7.14;87.93;98732.59;4160297;28;20311;-72
2022/04/14 02:28:43;;;;;;;12.43;7.97;;;;;;;7.07;88.62;98740.63;4165495;28;20037;-72
2022/04/14 02:30:44;;;;;;;11.45;9.02;;;;;;;7.01;89.77;98738.13;4161473;28;20038;-72
2022/04/14 02:32:44;;;;;;;12.30;8.85;;;;;;;6.99;90.70;98745.94;4161965;28;20084;-72
2022/04/14 02:34:44;;;;;;;12.88;8.30;;;;;;;7.01;89.15;98748.31;4163154;28;20033;-72
2022/04/14 02:36:45;;;;;;;14.23;8.85;;;;;;;7.09;91.72;98744.63;4161562;28;20128;-72
2022/04/14 02:38:45;;;;;;;18.63;11.13;;;;;;;7.35;98.59;98744.19;4162557;28;20052;-72
2022/04/14 02:40:45;;;;;;;17.05;11.40;;;;;;;7.60;100.00;98753.16;4161807;28;20045;-72
2022/04/14 02:42:46;;;;;;;17.73;10.80;;;;;;;7.83;100.00;98759.69;4168078;28;20159;-72
2022/04/14 02:44:47;;;;;;;16.58;10.90;;;;;;;8.07;100.00;98753.25;4159148;28;20077;-72
2022/04/14 02:46:47;;;;;;;16.80;11.80;;;;;;;8.31;100.00;98762.50;4159305;28;20044;-72
2022/04/14 02:48:47;;;;;;;16.40;11.13;;;;;;;8.50;100.00;98759.03;4163054;28;20041;-72
2022/04/14 02:50:48;;;;;;;17.00;11.82;;;;;;;8.64;97.54;98759.38;4161972;28;20037;-72
2022/04/14 02:52:49;;;;;;;20.75;12.00;;;;;;;8.77;97.07;98765.56;4166015;28;20118;-72
2022/04/14 02:54:50;;;;;;;15.85;11.07;;;;;;;8.81;96.35;98760.97;4161753;28;20520;-72
2022/04/14 02:56:50;;;;;;;16.85;10.93;;;;;;;8.89;96.88;98757.19;4161767;28;20115;-72
2022/04/14 02:58:50;;;;;;;19.83;12.15;;;;;;;8.97;95.50;98759.75;4163577;28;20033;-72
2022/04/14 03:00:51;;;;;;;17.33;11.27;;;;;;;8.96;94.33;98766.44;4160028;28;20698;-72
2022/04/14 03:02:51;;;;;;;18.58;11.63;;;;;;;8.92;94.40;98765.53;4163316;28;20649;-72
2022/04/14 03:04:53;;;;;;;16.52;11.38;;;;;;;8.89;95.05;98763.50;4163258;28;20128;-72
2022/04/14 03:06:53;;;;;;;14.63;11.13;;;;;;;8.88;94.48;98770.19;4162423;28;20164;-72
2022/04/14 03:08:54;;;;;;;17.65;11.15;;;;;;;8.92;95.84;98778.53;4161443;28;20084;-72
2022/04/14 03:10:55;;;;;;;18.85;11.75;;;;;;;8.88;96.09;98778.47;4164708;28;20539;-72
2022/04/14 03:12:57;;;;;;;16.75;11.10;;;;;;;8.86;95.91;98783.56;4158346;28;20045;-72
2022/04/14 03:14:58;;;;;;;15.27;11.13;;;;;;;8.83;96.17;98773.22;4159491;28;20556;-72
2022/04/14 03:16:58;;;;;;;16.55;11.43;;;;;;;8.82;96.22;98787.38;4162231;28;20046;-72
2022/04/14 03:18:58;;;;;;;16.58;11.55;;;;;;;8.85;95.62;98789.41;4164004;28;20045;-72
2022/04/14 03:20:59;;;;;;;17.77;11.02;;;;;;;8.80;94.76;98787.75;4162083;28;20691;-72
2022/04/14 03:23:00;;;;;;;18.05;11.23;;;;;;;8.84;94.33;98796.09;4161357;28;20045;-72
2022/04/14 03:25:05;;;;;;;18.10;10.60;;;;;;;8.81;93.12;98797.63;4162009;28;20061;-72
2022/04/14 03:27:05;;;;;;;17.65;11.07;;;;;;;8.81;91.99;98803.13;4163283;28;20528;-72
2022/04/14 03:29:06;;;;;;;19.45;10.85;;;;;;;8.75;92.62;98796.28;4158856;28;20080;-72
2022/04/14 03:31:06;;;;;;;20.75;11.00;;;;;;;8.78;92.72;98806.63;4163038;28;20049;-72
2022/04/14 03:33:06;;;;;;;19.45;11.07;;;;;;;8.77;94.10;98804.19;4164941;28;20489;-72
2022/04/14 03:35:07;;;;;;;15.18;10.57;;;;;;;8.73;93.96;98815.97;4159039;28;20432;-72
2022/04/14 03:37:08;;;;;;;17.13;10.63;;;;;;;8.64;92.74;98820.06;4162368;28;20052;-72
2022/04/14 03:39:08;;;;;;;19.33;9.73;;;;;;;8.54;92.17;98817.84;4163340;28;20049;-72
2022/04/14 03:41:09;;;;;;;15.65;10.57;;;;;;;8.38;93.40;98815.09;4159340;28;20448;-72
2022/04/14 03:43:09;;;;;;;18.23;11.40;;;;;;;8.17;95.11;98826.31;4158483;28;20041;-72
2022/04/14 03:45:10;;;;;;;16.33;10.95;;;;;;;8.07;95.04;98815.81;4162980;28;20095;-72
2022/04/14 03:47:10;;;;;;;19.73;10.80;;;;;;;7.98;95.38;98817.94;4163825;28;20044;-72
2022/04/14 03:49:11;;;;;;;17.95;10.65;;;;;;;7.92;94.98;98817.38;4158440;28;20469;-72
2022/04/14 03:51:15;;;;;;;13.88;9.57;;;;;;;7.86;95.45;98818.78;4163258;28;20041;-72
2022/04/14 03:53:18;;;;;;;14.77;10.48;;;;;;;7.78;96.92;98817.00;4162578;28;20126;-72
2022/04/14 03:55:19;;;;;;;14.73;10.35;;;;;;;7.76;97.75;98828.34;4159908;28;20045;-72
2022/04/14 03:57:19;;;;;;;17.65;9.93;;;;;;;7.73;98.03;98829.06;4161585;28;20045;-72
2022/04/14 03:59:20;;;;;;;16.45;10.73;;;;;;;7.72;97.90;98837.69;4161825;28;20106;-72
2022/04/14 04:01:21;;;;;;;15.57;10.60;;;;;;;7.69;98.16;98828.16;4161231;28;20048;-72
2022/04/14 04:03:22;;;;;;;15.68;10.73;;;;;;;7.68;98.72;98834.00;4156501;28;20045;-72
2022/04/14 04:05:23;;;;;;;20.33;10.73;;;;;;;7.67;98.91;98843.44;4161015;28;20552;-72
2022/04/14 04:07:23;;;;;;;17.15;10.32;;;;;;;7.69;98.69;98843.88;4161289;28;20125;-72
2022/04/14 04:09:23;;;;;;;19.73;11.10;;;;;;;7.67;99.27;98848.94;4159863;28;20469;-72
2022/04/14 04:11:24;;;;;;;14.05;10.07;;;;;;;7.67;99.03;98843.44;4161060;28;20052;-72
2022/04/14 04:13:24;;;;;;;20.83;14.70;;;;;;;7.70;98.65;98854.56;4162085;28;20033;-72
2022/04/14 04:15:24;;;;;;;20.30;12.25;;;;;;;7.67;97.41;98847.00;4159738;28;20049;-72
2022/04/14 04:17:24;;;;;;;16.83;11.38;;;;;;;7.71;97.26;98855.38;4161881;28;20152;-72
2022/04/14 04:19:25;;;;;;;14.57;9.95;;;;;;;7.74;95.24;98852.69;4162985;28;20041;-72
2022/04/14 04:21:26;;;;;;;15.18;9.73;;;;;;;7.75;94.79;98850.75;4157840;28;20064;-72
2022/04/14 04:23:27;;;;;;;18.88;10.70;;;;;;;7.73;95.98;98851.09;4161812;28;20050;-72
2022/04/14 04:25:27;;;;;;;15.10;10.50;;;;;;;7.67;97.59;98851.69;4160893;28;20049;-72
2022/04/14 04:27:27;;;;;;;14.70;10.60;;;;;;;7.65;97.93;98862.25;4155740;28;20129;-72
2022/04/14 04:29:28;;;;;;;17.38;10.63;;;;;;;7.64;97.75;98869.72;4158955;28;20124;-72
2022/04/14 04:31:28;;;;;;;19.10;10.40;;;;;;;7.59;98.03;98869.97;4166490;28;20462;-72
2022/04/14 04:33:29;;;;;;;16.85;10.02;;;;;;;7.57;96.92;98875.03;4153021;28;20488;-72
2022/04/14 04:35:29;;;;;;;17.63;11.60;;;;;;;7.56;96.42;98874.22;4161851;28;20059;-72
2022/04/14 04:37:30;;;;;;;14.30;9.95;;;;;;;7.60;96.31;98877.06;4154226;28;20167;-72
2022/04/14 04:39:30;;;;;;;18.08;10.68;;;;;;;7.60;94.73;98879.81;4161083;28;20495;-72
2022/04/14 04:41:30;;;;;;;13.68;10.48;;;;;;;7.63;94.68;98881.91;4159052;28;20726;-72
2022/04/14 04:43:31;;;;;;;17.75;10.30;;;;;;;7.68;92.06;98875.31;4159346;28;20239;-72
2022/04/14 04:45:31;;;;;;;17.67;10.52;;;;;;;7.69;92.08;98871.41;4165373;28;20049;-71
2022/04/14 04:47:31;;;;;;;14.73;9.55;;;;;;;7.72;92.63;98868.00;4159775;28;20049;-72
2022/04/14 04:49:32;;;;;;;15.18;9.88;;;;;;;7.74;91.24;98869.22;4161105;28;20077;-72
2022/04/14 04:51:32;;;;;;;19.05;10.68;;;;;;;7.79;89.84;98880.00;4166152;28;20041;-72
2022/04/14 04:53:32;;;;;;;13.45;9.25;;;;;;;7.85;88.50;98878.59;4161242;28;20041;-72
2022/04/14 04:55:33;;;;;;;15.80;10.40;;;;;;;7.90;89.32;98880.31;4168710;28;20547;-72
2022/04/14 04:57:33;;;;;;;17.48;10.00;;;;;;;7.88;91.15;98875.16;4162909;28;20046;-72
2022/04/14 04:59:34;;;;;;;17.95;10.30;;;;;;;7.87;93.18;98892.84;4162436;28;20053;-72
2022/04/14 05:01:34;;;;;;;21.63;11.43;;;;;;;7.85;93.83;98889.59;4163934;28;20807;-72
2022/04/14 05:03:34;;;;;;;15.52;10.88;;;;;;;7.87;93.07;98894.78;4105153;28;20549;-72
2022/04/14 05:05:35;;;;;;;16.05;10.80;;;;;;;7.90;92.37;98905.09;4160198;28;20056;-72
2022/04/14 05:07:36;;;;;;;17.80;10.90;;;;;;;7.93;92.81;98900.84;4161607;28;20041;-72
2022/04/14 05:09:36;;;;;;;15.73;11.35;;;;;;;7.97;92.41;98899.00;4158133;28;20037;-72
2022/04/14 05:11:36;;;;;;;18.55;10.65;;;;;;;8.06;91.60;98913.44;4160258;28;20045;-72
2022/04/14 05:13:37;;;;;;;15.63;10.70;;;;;;;8.05;92.94;98898.84;4159021;28;20069;-72
2022/04/14 05:15:37;;;;;;;17.40;11.65;;;;;;;8.14;93.33;98907.75;4160409;28;20043;-72
2022/04/14 05:17:38;;;;;;;24.33;12.55;;;;;;;8.15;95.44;98903.84;4158386;28;20128;-72
2022/04/14 05:19:38;;;;;;;19.45;11.57;;;;;;;8.16;94.89;98899.94;4161076;28;20041;-72
2022/04/14 05:21:39;;;;;;;14.18;11.25;;;;;;;8.22;93.83;98919.00;4156798;28;20430;-72
2022/04/14 05:23:39;;;;;;;17.60;11.10;;;;;;;8.26;93.30;98917.13;4155373;28;20152;-72
2022/04/14 05:25:40;;;;;;;22.05;11.90;;;;;;;8.30;93.31;98918.03;4157593;28;20113;-72
2022/04/14 05:27:42;;;;;;;16.50;10.52;;;;;;;8.30;93.01;98907.00;4156100;28;20045;-72
2022/04/14 05:29:42;;;;;;;17.75;10.73;;;;;;;8.37;90.07;98907.22;4157104;28;20380;-72
2022/04/14 05:31:43;;;;;;;16.65;10.40;;;;;;;8.40;89.56;98903.75;4159808;28;20045;-72
2022/04/14 05:33:43;;;;;;;18.52;10.48;;;;;;;8.47;89.19;98903.16;4158213;28;20089;-72
2022/04/14 05:35:45;;;;;;;16.02;10.57;;;;;;;8.56;90.03;98917.56;4155234;28;20045;-72
2022/04/14 05:37:45;;;;;;;18.20;11.70;;;;;;;8.58;91.37;98907.78;4157131;28;20165;-72
2022/04/14 05:39:46;;;;;;;25.02;12.75;;;;;;;8.62;92.81;98913.41;4157938;28;20615;-72
2022/04/14 05:41:46;;;;;;;15.93;11.40;;;;;;;8.63;93.59;98915.00;4157585;28;20092;-72
2022/04/14 05:43:47;;;;;;;16.63;12.25;;;;;;;8.68;93.36;98907.25;4157337;28;20492;-72
2022/04/14 05:45:48;;;;;;;16.10;11.20;;;;;;;8.73;91.80;98911.72;4156468;28;20049;-72
2022/04/14 05:47:48;;;;;;;18.65;12.38;;;;;;;8.76;93.14;98919.28;4159359;28;20053;-72
2022/04/14 05:49:50;;;;;;;17.70;11.82;;;;;;;8.78;91.70;98908.72;4158519;28;20171;-72
2022/04/14 05:51:50;;;;;;;19.25;11.60;;;;;;;8.83;91.92;98913.94;4157945;28;20376;-72
2022/04/14 05:53:53;;;;;;;26.75;14.13;;;;;;;8.94;96.63;98915.03;4156455;28;20161;-73
2022/04/14 05:55:53;;;;;;;22.65;14.30;;;;;;;9.09;98.99;98918.91;4157869;28;20491;-72
2022/04/14 05:57:53;;;;;;;21.33;12.55;;;;;;;9.17;98.45;98915.16;4156961;28;20157;-72
2022/04/14 05:59:54;;;;;;;22.58;13.45;;;;;;;9.25;94.96;98925.22;4157892;28;20076;-72
2022/04/14 06:01:54;;;;;;;23.20;14.00;;;;;;;9.28;94.87;98927.28;4157664;28;20077;-72
2022/04/14 06:03:54;;;;;;;27.85;15.13;;;;;;;9.32;94.50;98932.09;4155757;28;20053;-72
2022/04/14 06:05:55;;;;;;;27.52;14.65;;;;;;;9.34;94.91;98919.50;4158952;28;20057;-72
2022/04/14 06:07:55;;;;;;;20.08;13.77;;;;;;;9.41;96.38;98921.63;4158964;28;20418;-72
2022/04/14 06:09:55;;;;;;;20.60;13.32;;;;;;;9.46;96.01;98922.16;4158738;28;20052;-72
2022/04/14 06:11:56;;;;;;;20.35;12.55;;;;;;;9.51;95.93;98912.78;4157693;28;20068;-72
2022/04/14 06:13:56;;;;;;;19.48;13.52;;;;;;;9.59;96.91;98920.06;4156109;28;20264;-72
2022/04/14 06:15:56;;;;;;;20.77;13.63;;;;;;;9.68;98.21;98923.47;4158539;28;20478;-72
2022/04/14 06:17:57;;;;;;;24.42;14.38;;;;;;;9.77;98.69;98926.81;4157083;28;20037;-72
2022/04/14 06:19:58;;;;;;;23.15;14.82;;;;;;;9.84;97.86;98913.13;4156607;28;20120;-72
2022/04/14 06:21:58;;;;;;;21.77;14.48;;;;;;;9.95;98.15;98910.59;4155087;28;20064;-72
2022/04/14 06:23:58;;;;;;;22.00;14.48;;;;;;;10.04;98.28;98916.72;4156024;28;20045;-72
2022/04/14 06:25:59;;;;;;;21.45;14.57;;;;;;;10.17;98.53;98922.09;4157260;28;20041;-72
2022/04/14 06:27:59;;;;;;;22.00;15.82;;;;;;;10.25;99.12;98910.03;4155051;28;20113;-72
2022/04/14 06:29:59;;;;;;;24.88;16.90;;;;;;;10.40;99.53;98917.44;4156061;28;20175;-72
2022/04/14 06:32:00;;;;;;;30.08;18.52;;;;;;;10.50;98.42;98911.31;4154619;28;20033;-72
2022/04/14 06:34:02;;;;;;;22.25;16.92;;;;;;;10.61;98.21;98906.78;4156433;28;20041;-72
2022/04/14 06:36:02;;;;;;;26.20;17.37;;;;;;;10.76;98.72;98926.38;4158315;28;20064;-72
2022/04/14 06:38:02;;;;;;;21.75;15.50;;;;;;;10.84;98.68;98917.88;4154953;28;20432;-72
2022/04/14 06:40:03;;;;;;;22.42;15.40;;;;;;;10.94;97.43;98917.25;4157709;28;20017;-72
2022/04/14 06:42:05;;;;;;;28.85;16.88;;;;;;;11.04;98.73;98918.59;4159543;28;20025;-72
2022/04/14 06:44:06;;;;;;;26.20;18.00;;;;;;;11.14;98.02;98922.69;4154879;28;20397;-72
2022/04/14 06:46:06;;;;;;;29.98;17.63;;;;;;;11.21;97.72;98931.13;4158394;28;20021;-72
2022/04/14 06:48:08;;;;;;;23.45;16.80;;;;;;;11.28;97.53;98925.72;4155086;28;20564;-72
2022/04/14 06:50:09;;;;;;;31.10;17.77;;;;;;;11.36;97.19;98921.88;4156825;28;20018;-72
2022/04/14 06:52:09;;;;;;;26.88;16.95;;;;;;;11.48;97.76;98926.41;4155197;28;20139;-72
2022/04/14 06:54:09;;;;;;;25.65;17.25;;;;;;;11.56;96.96;98924.53;4156119;28;20088;-72
2022/04/14 06:56:10;;;;;;;27.25;17.67;;;;;;;11.65;96.69;98923.09;4157064;28;20096;-72
2022/04/14 06:58:11;;;;;;;29.20;17.58;;;;;;;11.71;96.29;98932.69;4162820;28;20440;-72
2022/04/14 07:00:12;;;;;;;28.08;16.63;;;;;;;11.85;94.74;98926.56;4159035;28;20023;-72
2022/04/14 07:02:12;;;;;;;23.30;16.55;;;;;;;11.91;94.40;98922.28;4163640;28;20025;-72
2022/04/14 07:04:12;;;;;;;23.92;16.58;;;;;;;12.01;93.19;98926.38;4159708;28;20501;-72
2022/04/14 07:06:13;;;;;;;21.88;15.75;;;;;;;12.02;90.82;98931.56;4160236;28;20032;-72
2022/04/14 07:08:13;;;;;;;22.95;15.43;;;;;;;12.07;91.14;98933.19;4165319;28;20361;-72
2022/04/14 07:10:14;;;;;;;20.80;15.15;;;;;;;12.10;89.74;98938.00;4159693;28;20029;-72
2022/04/14 07:12:14;;;;;;;21.30;13.25;;;;;;;12.11;88.88;98930.47;4154296;28;20033;-72
2022/04/14 07:14:15;;;;;;;20.23;13.77;;;;;;;12.07;88.42;98924.84;4163999;28;20064;-72
2022/04/14 07:16:15;;;;;;;21.38;14.13;;;;;;;12.10;88.67;98932.44;4160890;28;20017;-72
2022/04/14 07:18:15;;;;;;;26.25;17.05;;;;;;;12.09;88.96;98937.19;4159722;28;20236;-72
2022/04/14 07:20:16;;;;;;;23.80;14.88;;;;;;;12.17;88.93;98934.50;4161939;28;20641;-72
2022/04/14 07:22:18;;;;;;;22.08;14.43;;;;;;;12.25;88.80;98933.44;4162827;28;20420;-72
2022/04/14 07:24:19;;;;;;;21.00;13.75;;;;;;;12.36;88.57;98939.88;4162871;28;20029;-72
2022/04/14 07:26:19;;;;;;;22.13;14.23;;;;;;;12.47;87.61;98948.31;4163257;28;20151;-72
2022/04/14 07:28:19;;;;;;;24.50;13.95;;;;;;;12.54;85.97;98942.88;4158103;28;20029;-72
2022/04/14 07:30:20;;;;;;;23.30;13.98;;;;;;;12.61;85.62;98929.84;4160075;28;20029;-72
2022/04/14 07:32:21;;;;;;;22.60;14.65;;;;;;;12.72;86.79;98946.63;4161651;28;20126;-72
2022/04/14 07:34:21;;;;;;;19.33;13.55;;;;;;;12.73;85.47;98933.53;4159836;28;20049;-72
2022/04/14 07:36:21;;;;;;;21.73;13.55;;;;;;;12.79;84.57;98932.81;4162948;28;20499;-72
2022/04/14 07:38:22;;;;;;;18.92;12.82;;;;;;;12.88;83.86;98930.50;4167573;28;20288;-72
2022/04/14 07:40:22;;;;;;;20.20;12.75;;;;;;;13.04;83.61;98930.25;4162763;28;20040;-72
2022/04/14 07:42:31;;;;;;;20.33;13.10;;;;;;;13.16;83.61;98934.75;4158353;28;20477;-72
2022/04/14 07:44:31;;;;;;;18.15;12.65;;;;;;;13.17;82.00;98928.00;4158186;28;20064;-72
2022/04/14 07:46:32;;;;;;;16.60;11.82;;;;;;;13.18;83.17;98937.94;4161990;28;20470;-72
2022/04/14 07:48:32;;;;;;;15.60;11.00;;;;;;;13.25;83.51;98937.22;4164264;28;20132;-72
2022/04/14 07:50:32;;;;;;;19.85;11.50;;;;;;;13.24;82.02;98930.88;4166344;28;20136;-72
2022/04/14 07:52:51;;;;;;;17.10;11.30;;;;;;;13.31;83.42;98950.34;4160196;28;20041;-72
2022/04/14 07:54:51;;;;;;;21.23;12.68;;;;;;;13.29;83.01;98938.03;4159280;28;20235;-72
2022/04/14 07:56:51;;;;;;;15.98;10.95;;;;;;;13.36;82.26;98947.22;4159103;28;20088;-72
2022/04/14 07:58:52;;;;;;;16.08;10.63;;;;;;;13.38;82.36;98946.84;4162755;28;20124;-72
2022/04/14 08:00:52;;;;;;;16.60;11.82;;;;;;;13.41;81.78;98955.22;4162742;28;20091;-72
2022/04/14 08:03:01;;;;;;;14.77;11.07;;;;;;;13.46;81.23;98951.28;4159240;28;20063;-72
2022/04/14 08:05:01;;;;;;;19.77;11.25;;;;;;;13.49;80.80;98942.97;4162291;28;20057;-72
2022/04/14 08:07:02;;;;;;;18.90;12.90;;;;;;;13.59;80.49;98962.91;4161240;28;20106;-72
2022/04/14 08:09:04;;;;;;;17.15;11.07;;;;;;;13.62;80.29;98964.91;4162569;28;20435;-72
2022/04/14 08:11:05;;;;;;;;;;;;;;;13.65;80.30;98961.34;4164213;28;20063;-72
2022/04/14 08:13:05;;;;;;;17.35;11.02;;;;;;;13.68;80.33;98969.72;4158133;28;20329;-72
2022/04/14 08:15:07;;;;;;;17.15;10.90;;;;;;;13.67;77.85;98964.53;4158081;28;20041;-72
2022/04/14 08:17:07;;;;;;;15.63;11.05;;;;;;;13.65;78.30;98964.94;4157573;28;20219;-72
2022/04/14 08:19:07;;;;;;;16.33;10.77;;;;;;;13.70;77.96;98963.75;4159075;28;20080;-72
2022/04/14 08:21:08;;;;;;;20.35;12.32;;;;;;;13.72;78.60;98967.75;4157280;28;20049;-72
2022/04/14 08:23:14;;;;;;;17.83;12.40;;;;;;;13.79;78.28;98967.00;4159211;28;20052;-72
2022/04/14 08:25:17;;;;;;;17.30;12.43;;;;;;;13.77;78.46;98961.03;4156890;28;20045;-72
2022/04/14 08:27:18;;;;;;;19.05;12.98;;;;;;;13.65;78.28;98975.22;4158629;28;20127;-72
2022/04/14 08:29:18;;;;;;;20.27;13.95;;;;;;;13.75;77.83;98969.75;4161995;28;20037;-72
2022/04/14 08:31:21;;;;;;;18.52;12.50;;;;;;;13.78;78.33;98968.19;4160877;28;20378;-72
2022/04/14 08:33:23;;;;;;;20.90;13.98;;;;;;;13.81;77.99;98980.50;4158114;28;20038;-72
2022/04/14 08:35:26;;;;;;;16.65;11.82;;;;;;;13.82;78.83;98979.31;4155758;28;20060;-72
2022/04/14 08:37:26;;;;;;;19.60;13.25;;;;;;;13.86;78.05;98986.50;4161330;28;20420;-72
2022/04/14 08:39:29;;;;;;;17.88;13.68;;;;;;;13.79;78.87;98980.91;4161102;28;20131;-72
2022/04/14 08:41:33;;;;;;;19.48;13.40;;;;;;;13.79;78.00;98986.47;4160326;28;20063;-72
2022/04/14 08:43:36;;;;;;;18.85;12.70;;;;;;;13.82;78.41;98999.63;4160993;28;20053;-72
2022/04/14 08:45:47;;;;;;;20.92;13.40;;;;;;;13.78;78.03;98984.88;4157419;28;20064;-72
2022/04/14 08:47:50;;;;;;;18.50;13.00;;;;;;;13.80;78.47;98976.13;4156959;28;20132;-72
2022/04/14 08:49:51;;;;;;;19.17;12.85;;;;;;;13.89;77.79;98984.94;4159439;28;20630;-72
2022/04/14 08:51:51;;;;;;;20.55;12.63;;;;;;;13.95;78.30;98986.16;4160750;28;20049;-72
2022/04/14 08:53:53;;;;;;;21.50;13.88;;;;;;;14.00;78.56;98977.47;4159836;28;20389;-72
2022/04/14 08:55:54;;;;;;;19.20;12.45;;;;;;;14.03;78.47;98977.47;4164233;28;20152;-72
2022/04/14 08:57:54;;;;;;;18.88;12.30;;;;;;;14.16;75.96;98985.50;4156458;28;20603;-72
2022/04/14 08:59:57;;;;;;;16.45;12.65;;;;;;;14.31;78.32;98985.19;4157191;28;20057;-72
2022/04/14 09:02:02;;;;;;;;;;;;;;;14.54;77.48;98986.88;4161757;28;20068;-72
2022/04/14 09:04:05;;;;;;;18.40;12.82;;;;;;;14.72;76.84;98978.59;4157012;28;19913;-72
2022/04/14 09:06:07;;;;;;;19.85;12.52;;;;;;;14.89;75.57;98981.44;4160910;28;20059;-72
2022/04/14 09:08:07;;;;;;;16.27;12.10;;;;;;;15.01;76.08;98990.59;4159269;28;20030;-72
2022/04/14 09:10:08;;;;;;;16.30;12.32;;;;;;;15.07;75.73;98989.03;4160082;28;20393;-72
2022/04/14 09:12:09;;;;;;;17.55;11.55;;;;;;;15.12;75.51;98989.41;4159347;28;20128;-72
2022/04/14 09:14:10;;;;;;;22.08;12.35;;;;;;;14.99;73.43;98991.00;4160601;28;20079;-72
2022/04/14 09:16:11;;;;;;;16.70;11.18;;;;;;;15.03;73.62;98993.78;4159402;28;20033;-72
2022/04/14 09:18:11;;;;;;;17.65;11.65;;;;;;;15.10;75.05;98989.03;4156646;28;20342;-72
2022/04/14 09:20:36;;;;;;;16.40;11.30;;;;;;;15.20;73.09;98995.00;4157910;28;20166;-72
2022/04/14 09:22:36;;;;;;;14.45;10.80;;;;;;;15.22;73.51;98987.03;4160490;28;20549;-72